Terminal Aerodrome Forecast
Issued by NWS

Home | Current Version | Previous Version | Text Only | Print | Product List | Glossary On
Versions: 1 2 3 4 5 6 7 8 9 10 11 12 13 14
000
FTUS42 KTAE 192300
TAFABY
TAF
KABY 192327Z 2000/2024 02010G18KT P6SM BKN017 BKN020
     FM200600 04011KT P6SM SCT003 OVC010
      TEMPO 2008/2012 6SM BR OVC008
     FM201400 05010KT P6SM SCT010 BKN025
     FM201700 05009KT P6SM SCT025 SCT050=

USA.gov is the U.S. government's official web portal to all federal, state and local government web resources and services.